sensor_id;sensor_type;location;lat;lon;timestamp;pressure;altitude;pressure_sealevel;temperature
40199;BMP280;25906;43.536;26.068;2023-08-06T00:02:01;97609.03;;;23.88
40199;BMP280;25906;43.536;26.068;2023-08-06T00:04:47;97606.31;;;23.96
40199;BMP280;25906;43.536;26.068;2023-08-06T00:07:32;97601.09;;;23.98
40199;BMP280;25906;43.536;26.068;2023-08-06T00:10:17;97600.38;;;23.97
40199;BMP280;25906;43.536;26.068;2023-08-06T00:13:02;97590.44;;;24.00
40199;BMP280;25906;43.536;26.068;2023-08-06T00:15:48;97592.66;;;23.94
40199;BMP280;25906;43.536;26.068;2023-08-06T00:18:33;97593.53;;;23.89
40199;BMP280;25906;43.536;26.068;2023-08-06T00:21:18;97590.81;;;23.89
40199;BMP280;25906;43.536;26.068;2023-08-06T00:24:04;97592.97;;;24.05
40199;BMP280;25906;43.536;26.068;2023-08-06T00:26:49;97596.81;;;23.95
40199;BMP280;25906;43.536;26.068;2023-08-06T00:29:34;97590.66;;;24.02
40199;BMP280;25906;43.536;26.068;2023-08-06T00:32:19;97585.47;;;23.81
40199;BMP280;25906;43.536;26.068;2023-08-06T00:35:05;97588.91;;;23.74
40199;BMP280;25906;43.536;26.068;2023-08-06T00:37:50;97595.22;;;23.69
40199;BMP280;25906;43.536;26.068;2023-08-06T00:40:36;97609.06;;;23.73
40199;BMP280;25906;43.536;26.068;2023-08-06T00:43:21;97595.53;;;23.88
40199;BMP280;25906;43.536;26.068;2023-08-06T00:46:06;97595.00;;;23.74
40199;BMP280;25906;43.536;26.068;2023-08-06T00:48:52;97593.38;;;23.64
40199;BMP280;25906;43.536;26.068;2023-08-06T00:51:37;97597.53;;;23.65
40199;BMP280;25906;43.536;26.068;2023-08-06T00:54:23;97590.88;;;23.66
40199;BMP280;25906;43.536;26.068;2023-08-06T00:57:08;97591.78;;;23.61
40199;BMP280;25906;43.536;26.068;2023-08-06T00:59:54;97608.56;;;23.59
40199;BMP280;25906;43.536;26.068;2023-08-06T01:02:40;97601.16;;;23.60
40199;BMP280;25906;43.536;26.068;2023-08-06T01:05:25;97610.53;;;23.59
40199;BMP280;25906;43.536;26.068;2023-08-06T01:08:14;97610.53;;;23.51
40199;BMP280;25906;43.536;26.068;2023-08-06T01:13:56;97604.91;;;23.57
40199;BMP280;25906;43.536;26.068;2023-08-06T01:16:43;97612.88;;;23.55
40199;BMP280;25906;43.536;26.068;2023-08-06T01:19:28;97605.13;;;23.44
40199;BMP280;25906;43.536;26.068;2023-08-06T01:22:13;97596.50;;;23.38
40199;BMP280;25906;43.536;26.068;2023-08-06T01:24:59;97590.38;;;23.37
40199;BMP280;25906;43.536;26.068;2023-08-06T01:27:46;97596.13;;;23.41
40199;BMP280;25906;43.536;26.068;2023-08-06T01:30:33;97606.75;;;23.47
40199;BMP280;25906;43.536;26.068;2023-08-06T01:33:22;97618.28;;;23.47
40199;BMP280;25906;43.536;26.068;2023-08-06T01:36:07;97625.66;;;23.54
40199;BMP280;25906;43.536;26.068;2023-08-06T01:38:53;97620.78;;;23.60
40199;BMP280;25906;43.536;26.068;2023-08-06T01:41:39;97622.22;;;23.46
40199;BMP280;25906;43.536;26.068;2023-08-06T01:44:24;97628.50;;;23.49
40199;BMP280;25906;43.536;26.068;2023-08-06T01:47:09;97619.72;;;23.56
40199;BMP280;25906;43.536;26.068;2023-08-06T01:49:55;97611.97;;;23.52
40199;BMP280;25906;43.536;26.068;2023-08-06T01:52:40;97618.63;;;23.51
40199;BMP280;25906;43.536;26.068;2023-08-06T01:55:25;97618.44;;;23.57
40199;BMP280;25906;43.536;26.068;2023-08-06T01:58:10;97611.06;;;23.57
40199;BMP280;25906;43.536;26.068;2023-08-06T02:00:56;97624.56;;;23.57
40199;BMP280;25906;43.536;26.068;2023-08-06T02:03:41;97626.34;;;23.32
40199;BMP280;25906;43.536;26.068;2023-08-06T02:06:26;97626.53;;;23.19
40199;BMP280;25906;43.536;26.068;2023-08-06T02:09:11;97621.28;;;23.06
40199;BMP280;25906;43.536;26.068;2023-08-06T02:11:57;97629.19;;;23.04
40199;BMP280;25906;43.536;26.068;2023-08-06T02:14:42;97624.50;;;22.89
40199;BMP280;25906;43.536;26.068;2023-08-06T02:17:27;97623.16;;;22.68
40199;BMP280;25906;43.536;26.068;2023-08-06T02:20:13;97633.47;;;22.48
40199;BMP280;25906;43.536;26.068;2023-08-06T02:22:58;97628.81;;;22.49
40199;BMP280;25906;43.536;26.068;2023-08-06T02:25:43;97623.53;;;22.28
40199;BMP280;25906;43.536;26.068;2023-08-06T02:28:29;97624.72;;;22.20
40199;BMP280;25906;43.536;26.068;2023-08-06T02:31:14;97624.28;;;22.08
40199;BMP280;25906;43.536;26.068;2023-08-06T02:33:59;97615.69;;;22.10
40199;BMP280;25906;43.536;26.068;2023-08-06T02:36:44;97622.84;;;22.07
40199;BMP280;25906;43.536;26.068;2023-08-06T02:39:30;97629.31;;;22.04
40199;BMP280;25906;43.536;26.068;2023-08-06T02:42:15;97623.28;;;21.91
40199;BMP280;25906;43.536;26.068;2023-08-06T02:45:00;97623.16;;;21.75
40199;BMP280;25906;43.536;26.068;2023-08-06T02:47:45;97628.81;;;21.64
40199;BMP280;25906;43.536;26.068;2023-08-06T02:50:31;97627.81;;;21.75
40199;BMP280;25906;43.536;26.068;2023-08-06T02:53:16;97626.88;;;21.65
40199;BMP280;25906;43.536;26.068;2023-08-06T02:56:01;97625.41;;;21.64
40199;BMP280;25906;43.536;26.068;2023-08-06T02:58:47;97628.75;;;21.57
40199;BMP280;25906;43.536;26.068;2023-08-06T03:01:33;97640.44;;;21.59
40199;BMP280;25906;43.536;26.068;2023-08-06T03:04:18;97631.72;;;21.66
40199;BMP280;25906;43.536;26.068;2023-08-06T03:07:04;97623.09;;;21.68
40199;BMP280;25906;43.536;26.068;2023-08-06T03:09:49;97624.66;;;21.84
40199;BMP280;25906;43.536;26.068;2023-08-06T03:12:34;97616.56;;;21.84
40199;BMP280;25906;43.536;26.068;2023-08-06T03:15:19;97614.03;;;21.78
40199;BMP280;25906;43.536;26.068;2023-08-06T03:18:05;97621.22;;;21.83
40199;BMP280;25906;43.536;26.068;2023-08-06T03:20:51;97618.88;;;21.80
40199;BMP280;25906;43.536;26.068;2023-08-06T03:23:36;97623.97;;;21.91
40199;BMP280;25906;43.536;26.068;2023-08-06T03:26:21;97609.03;;;21.82
40199;BMP280;25906;43.536;26.068;2023-08-06T03:29:07;97611.97;;;21.92
40199;BMP280;25906;43.536;26.068;2023-08-06T03:31:52;97616.16;;;22.01
40199;BMP280;25906;43.536;26.068;2023-08-06T03:34:37;97616.50;;;21.97
40199;BMP280;25906;43.536;26.068;2023-08-06T03:37:23;97609.38;;;22.07
40199;BMP280;25906;43.536;26.068;2023-08-06T03:40:08;97614.53;;;21.98
40199;BMP280;25906;43.536;26.068;2023-08-06T03:42:53;97613.25;;;21.99
40199;BMP280;25906;43.536;26.068;2023-08-06T03:45:39;97610.63;;;22.06
40199;BMP280;25906;43.536;26.068;2023-08-06T03:48:25;97604.69;;;22.08
40199;BMP280;25906;43.536;26.068;2023-08-06T03:51:10;97607.44;;;22.15
40199;BMP280;25906;43.536;26.068;2023-08-06T03:53:55;97601.03;;;22.26
40199;BMP280;25906;43.536;26.068;2023-08-06T03:56:40;97603.56;;;22.31
40199;BMP280;25906;43.536;26.068;2023-08-06T03:59:26;97597.91;;;22.50
40199;BMP280;25906;43.536;26.068;2023-08-06T04:02:11;97602.13;;;22.66
40199;BMP280;25906;43.536;26.068;2023-08-06T04:04:57;97596.25;;;22.98
40199;BMP280;25906;43.536;26.068;2023-08-06T04:07:44;97594.84;;;23.04
40199;BMP280;25906;43.536;26.068;2023-08-06T04:10:29;97598.47;;;23.22
40199;BMP280;25906;43.536;26.068;2023-08-06T04:13:14;97582.41;;;23.16
40199;BMP280;25906;43.536;26.068;2023-08-06T04:16:02;97571.66;;;23.24
40199;BMP280;25906;43.536;26.068;2023-08-06T04:18:48;97580.28;;;23.15
40199;BMP280;25906;43.536;26.068;2023-08-06T04:21:33;97582.75;;;22.98
40199;BMP280;25906;43.536;26.068;2023-08-06T04:24:19;97582.38;;;22.86
40199;BMP280;25906;43.536;26.068;2023-08-06T04:27:04;97586.88;;;22.84
40199;BMP280;25906;43.536;26.068;2023-08-06T04:29:49;97596.56;;;22.87
40199;BMP280;25906;43.536;26.068;2023-08-06T04:32:35;97590.44;;;22.79
40199;BMP280;25906;43.536;26.068;2023-08-06T04:35:21;97599.81;;;22.78
40199;BMP280;25906;43.536;26.068;2023-08-06T04:38:06;97601.06;;;22.77
40199;BMP280;25906;43.536;26.068;2023-08-06T04:40:52;97594.53;;;22.65
40199;BMP280;25906;43.536;26.068;2023-08-06T04:43:37;97596.38;;;22.77
40199;BMP280;25906;43.536;26.068;2023-08-06T04:46:23;97598.72;;;22.73
40199;BMP280;25906;43.536;26.068;2023-08-06T04:49:08;97594.44;;;22.93
40199;BMP280;25906;43.536;26.068;2023-08-06T04:51:53;97586.16;;;22.91
40199;BMP280;25906;43.536;26.068;2023-08-06T04:54:39;97590.69;;;22.96
40199;BMP280;25906;43.536;26.068;2023-08-06T04:57:24;97593.16;;;22.86
40199;BMP280;25906;43.536;26.068;2023-08-06T05:00:09;97592.81;;;22.90
40199;BMP280;25906;43.536;26.068;2023-08-06T05:02:54;97594.97;;;22.84
40199;BMP280;25906;43.536;26.068;2023-08-06T05:05:40;97579.44;;;22.62
40199;BMP280;25906;43.536;26.068;2023-08-06T05:08:26;97589.19;;;22.80
40199;BMP280;25906;43.536;26.068;2023-08-06T05:11:11;97584.16;;;22.76
40199;BMP280;25906;43.536;26.068;2023-08-06T05:13:57;97588.84;;;22.76
40199;BMP280;25906;43.536;26.068;2023-08-06T05:16:42;97590.19;;;22.54
40199;BMP280;25906;43.536;26.068;2023-08-06T05:19:27;97594.53;;;22.65
40199;BMP280;25906;43.536;26.068;2023-08-06T05:22:12;97594.75;;;22.67
40199;BMP280;25906;43.536;26.068;2023-08-06T05:24:58;97599.84;;;22.93
40199;BMP280;25906;43.536;26.068;2023-08-06T05:27:43;97594.50;;;23.23
40199;BMP280;25906;43.536;26.068;2023-08-06T05:30:28;97596.47;;;23.45
40199;BMP280;25906;43.536;26.068;2023-08-06T05:33:14;97587.66;;;23.37
40199;BMP280;25906;43.536;26.068;2023-08-06T05:35:59;97584.75;;;23.65
40199;BMP280;25906;43.536;26.068;2023-08-06T05:38:44;97572.84;;;23.91
40199;BMP280;25906;43.536;26.068;2023-08-06T05:41:30;97574.31;;;23.85
40199;BMP280;25906;43.536;26.068;2023-08-06T05:44:15;97562.41;;;23.72
40199;BMP280;25906;43.536;26.068;2023-08-06T05:47:00;97560.25;;;23.71
40199;BMP280;25906;43.536;26.068;2023-08-06T05:49:45;97566.69;;;23.98
40199;BMP280;25906;43.536;26.068;2023-08-06T05:52:31;97560.50;;;24.13
40199;BMP280;25906;43.536;26.068;2023-08-06T05:55:16;97558.41;;;24.36
40199;BMP280;25906;43.536;26.068;2023-08-06T05:58:01;97560.97;;;24.66
40199;BMP280;25906;43.536;26.068;2023-08-06T06:00:47;97571.88;;;24.59
40199;BMP280;25906;43.536;26.068;2023-08-06T06:03:32;97561.97;;;24.78
40199;BMP280;25906;43.536;26.068;2023-08-06T06:06:17;97564.34;;;25.06
40199;BMP280;25906;43.536;26.068;2023-08-06T06:09:03;97554.72;;;25.13
40199;BMP280;25906;43.536;26.068;2023-08-06T06:11:48;97556.47;;;25.35
40199;BMP280;25906;43.536;26.068;2023-08-06T06:14:35;97547.34;;;25.82
40199;BMP280;25906;43.536;26.068;2023-08-06T06:17:20;97549.66;;;25.51
40199;BMP280;25906;43.536;26.068;2023-08-06T06:20:05;97550.28;;;25.42
40199;BMP280;25906;43.536;26.068;2023-08-06T06:22:51;97556.66;;;25.37
40199;BMP280;25906;43.536;26.068;2023-08-06T06:25:36;97560.84;;;25.31
40199;BMP280;25906;43.536;26.068;2023-08-06T06:28:21;97542.88;;;25.43
40199;BMP280;25906;43.536;26.068;2023-08-06T06:31:06;97548.69;;;25.56
40199;BMP280;25906;43.536;26.068;2023-08-06T06:33:52;97551.94;;;25.38
40199;BMP280;25906;43.536;26.068;2023-08-06T06:36:39;97550.97;;;25.26
40199;BMP280;25906;43.536;26.068;2023-08-06T06:39:24;97544.78;;;25.50
40199;BMP280;25906;43.536;26.068;2023-08-06T06:42:09;97537.28;;;25.75
40199;BMP280;25906;43.536;26.068;2023-08-06T06:44:55;97530.91;;;26.24
40199;BMP280;25906;43.536;26.068;2023-08-06T06:47:40;97531.00;;;26.43
40199;BMP280;25906;43.536;26.068;2023-08-06T06:50:25;97529.47;;;26.49
40199;BMP280;25906;43.536;26.068;2023-08-06T06:53:11;97527.88;;;26.83
40199;BMP280;25906;43.536;26.068;2023-08-06T06:56:00;97533.50;;;27.04
40199;BMP280;25906;43.536;26.068;2023-08-06T06:58:46;97548.47;;;26.86
40199;BMP280;25906;43.536;26.068;2023-08-06T07:01:31;97549.34;;;26.98
40199;BMP280;25906;43.536;26.068;2023-08-06T07:04:16;97536.19;;;26.94
40199;BMP280;25906;43.536;26.068;2023-08-06T07:07:02;97544.06;;;26.54
40199;BMP280;25906;43.536;26.068;2023-08-06T07:09:47;97543.69;;;26.67
40199;BMP280;25906;43.536;26.068;2023-08-06T07:12:32;97554.66;;;26.60
40199;BMP280;25906;43.536;26.068;2023-08-06T07:15:18;97563.03;;;26.81
40199;BMP280;25906;43.536;26.068;2023-08-06T07:18:03;97555.75;;;26.83
40199;BMP280;25906;43.536;26.068;2023-08-06T07:20:51;97550.53;;;27.14
40199;BMP280;25906;43.536;26.068;2023-08-06T07:23:37;97566.25;;;27.06
40199;BMP280;25906;43.536;26.068;2023-08-06T07:26:22;97572.75;;;27.49
40199;BMP280;25906;43.536;26.068;2023-08-06T07:29:07;97580.03;;;27.94
40199;BMP280;25906;43.536;26.068;2023-08-06T07:31:52;97578.19;;;27.96
40199;BMP280;25906;43.536;26.068;2023-08-06T07:34:38;97582.91;;;28.06
40199;BMP280;25906;43.536;26.068;2023-08-06T07:37:23;97584.06;;;28.02
40199;BMP280;25906;43.536;26.068;2023-08-06T07:40:08;97576.75;;;28.15
40199;BMP280;25906;43.536;26.068;2023-08-06T07:42:54;97559.59;;;28.43
40199;BMP280;25906;43.536;26.068;2023-08-06T07:45:39;97562.78;;;28.70
40199;BMP280;25906;43.536;26.068;2023-08-06T07:48:25;97567.44;;;29.10
40199;BMP280;25906;43.536;26.068;2023-08-06T07:51:10;97570.13;;;28.58
40199;BMP280;25906;43.536;26.068;2023-08-06T07:53:55;97571.91;;;29.05
40199;BMP280;25906;43.536;26.068;2023-08-06T07:56:41;97580.59;;;28.92
40199;BMP280;25906;43.536;26.068;2023-08-06T07:59:26;97582.09;;;28.84
40199;BMP280;25906;43.536;26.068;2023-08-06T08:02:11;97579.91;;;29.13
40199;BMP280;25906;43.536;26.068;2023-08-06T08:04:56;97586.31;;;28.16
40199;BMP280;25906;43.536;26.068;2023-08-06T08:07:42;97592.34;;;28.24
40199;BMP280;25906;43.536;26.068;2023-08-06T08:10:27;97607.44;;;28.46
40199;BMP280;25906;43.536;26.068;2023-08-06T08:13:12;97617.69;;;28.66
40199;BMP280;25906;43.536;26.068;2023-08-06T08:15:58;97621.06;;;28.86
40199;BMP280;25906;43.536;26.068;2023-08-06T08:18:44;97634.06;;;28.57
40199;BMP280;25906;43.536;26.068;2023-08-06T08:21:29;97622.19;;;28.52
40199;BMP280;25906;43.536;26.068;2023-08-06T08:24:14;97635.13;;;28.33
40199;BMP280;25906;43.536;26.068;2023-08-06T08:27:00;97622.38;;;28.75
40199;BMP280;25906;43.536;26.068;2023-08-06T08:29:45;97619.53;;;29.04
40199;BMP280;25906;43.536;26.068;2023-08-06T08:32:30;97622.84;;;29.03
40199;BMP280;25906;43.536;26.068;2023-08-06T08:35:15;97627.16;;;28.56
40199;BMP280;25906;43.536;26.068;2023-08-06T08:38:01;97622.22;;;28.33
40199;BMP280;25906;43.536;26.068;2023-08-06T08:40:46;97626.13;;;28.11
40199;BMP280;25906;43.536;26.068;2023-08-06T08:43:34;97604.22;;;27.61
40199;BMP280;25906;43.536;26.068;2023-08-06T08:46:20;97615.53;;;27.58
40199;BMP280;25906;43.536;26.068;2023-08-06T08:49:06;97632.81;;;27.34
40199;BMP280;25906;43.536;26.068;2023-08-06T08:51:52;97618.66;;;27.45
40199;BMP280;25906;43.536;26.068;2023-08-06T08:54:38;97606.38;;;27.72
40199;BMP280;25906;43.536;26.068;2023-08-06T08:57:23;97608.25;;;28.08
40199;BMP280;25906;43.536;26.068;2023-08-06T09:00:09;97600.19;;;28.29
40199;BMP280;25906;43.536;26.068;2023-08-06T09:02:54;97604.31;;;28.40
40199;BMP280;25906;43.536;26.068;2023-08-06T09:05:44;97612.66;;;28.23
40199;BMP280;25906;43.536;26.068;2023-08-06T09:08:36;97615.38;;;28.13
40199;BMP280;25906;43.536;26.068;2023-08-06T09:11:22;97609.81;;;28.01
40199;BMP280;25906;43.536;26.068;2023-08-06T09:14:08;97599.78;;;27.85
40199;BMP280;25906;43.536;26.068;2023-08-06T09:16:54;97582.09;;;27.84
40199;BMP280;25906;43.536;26.068;2023-08-06T09:19:42;97583.47;;;27.85
40199;BMP280;25906;43.536;26.068;2023-08-06T09:22:35;97580.91;;;27.96
40199;BMP280;25906;43.536;26.068;2023-08-06T09:25:21;97579.91;;;27.92
40199;BMP280;25906;43.536;26.068;2023-08-06T09:28:06;97572.03;;;27.96
40199;BMP280;25906;43.536;26.068;2023-08-06T09:30:52;97560.56;;;27.78
40199;BMP280;25906;43.536;26.068;2023-08-06T09:33:40;97547.78;;;28.19
40199;BMP280;25906;43.536;26.068;2023-08-06T09:36:25;97541.72;;;27.90
40199;BMP280;25906;43.536;26.068;2023-08-06T09:39:12;97545.59;;;27.68
40199;BMP280;25906;43.536;26.068;2023-08-06T09:41:58;97571.19;;;27.93
40199;BMP280;25906;43.536;26.068;2023-08-06T09:44:44;97551.00;;;27.87
40199;BMP280;25906;43.536;26.068;2023-08-06T09:47:29;97545.44;;;27.56
40199;BMP280;25906;43.536;26.068;2023-08-06T09:50:16;97562.59;;;27.49
40199;BMP280;25906;43.536;26.068;2023-08-06T09:53:02;97565.69;;;27.17
40199;BMP280;25906;43.536;26.068;2023-08-06T09:55:48;97554.00;;;27.24
40199;BMP280;25906;43.536;26.068;2023-08-06T09:58:33;97529.63;;;27.07
40199;BMP280;25906;43.536;26.068;2023-08-06T10:01:19;97522.06;;;27.05
40199;BMP280;25906;43.536;26.068;2023-08-06T10:04:05;97524.34;;;26.99
40199;BMP280;25906;43.536;26.068;2023-08-06T10:06:52;97528.19;;;26.87
40199;BMP280;25906;43.536;26.068;2023-08-06T10:09:37;97535.28;;;26.73
40199;BMP280;25906;43.536;26.068;2023-08-06T10:12:23;97547.03;;;26.85
40199;BMP280;25906;43.536;26.068;2023-08-06T10:15:11;97554.00;;;26.78
40199;BMP280;25906;43.536;26.068;2023-08-06T10:17:57;97542.78;;;26.28
40199;BMP280;25906;43.536;26.068;2023-08-06T10:20:44;97559.09;;;25.94
40199;BMP280;25906;43.536;26.068;2023-08-06T10:23:33;97582.41;;;25.46
40199;BMP280;25906;43.536;26.068;2023-08-06T10:26:19;97585.81;;;24.40
40199;BMP280;25906;43.536;26.068;2023-08-06T10:32:08;97603.94;;;24.15
40199;BMP280;25906;43.536;26.068;2023-08-06T10:34:57;97604.53;;;23.98
40199;BMP280;25906;43.536;26.068;2023-08-06T10:37:44;97593.34;;;24.02
40199;BMP280;25906;43.536;26.068;2023-08-06T10:40:30;97605.78;;;23.97
40199;BMP280;25906;43.536;26.068;2023-08-06T10:43:29;97630.09;;;24.05
40199;BMP280;25906;43.536;26.068;2023-08-06T10:46:22;97639.72;;;24.38
40199;BMP280;25906;43.536;26.068;2023-08-06T10:49:07;97640.47;;;24.31
40199;BMP280;25906;43.536;26.068;2023-08-06T10:51:52;97652.72;;;24.32
40199;BMP280;25906;43.536;26.068;2023-08-06T10:54:38;97661.16;;;24.51
40199;BMP280;25906;43.536;26.068;2023-08-06T10:57:24;97659.41;;;24.78
40199;BMP280;25906;43.536;26.068;2023-08-06T11:00:09;97661.31;;;24.53
40199;BMP280;25906;43.536;26.068;2023-08-06T11:02:57;97667.75;;;24.73
40199;BMP280;25906;43.536;26.068;2023-08-06T11:05:49;97655.06;;;24.83
40199;BMP280;25906;43.536;26.068;2023-08-06T11:08:35;97663.25;;;25.00
40199;BMP280;25906;43.536;26.068;2023-08-06T11:11:22;97654.69;;;24.86
40199;BMP280;25906;43.536;26.068;2023-08-06T11:14:14;97647.25;;;24.87
40199;BMP280;25906;43.536;26.068;2023-08-06T11:16:59;97635.25;;;25.05
40199;BMP280;25906;43.536;26.068;2023-08-06T11:19:45;97614.69;;;25.02
40199;BMP280;25906;43.536;26.068;2023-08-06T11:22:30;97594.16;;;25.24
40199;BMP280;25906;43.536;26.068;2023-08-06T11:25:19;97587.31;;;25.40
40199;BMP280;25906;43.536;26.068;2023-08-06T11:28:05;97596.00;;;25.38
40199;BMP280;25906;43.536;26.068;2023-08-06T11:30:50;97595.75;;;25.27
40199;BMP280;25906;43.536;26.068;2023-08-06T11:33:36;97592.06;;;24.90
40199;BMP280;25906;43.536;26.068;2023-08-06T11:39:16;97603.91;;;24.94
40199;BMP280;25906;43.536;26.068;2023-08-06T11:42:04;97604.47;;;25.17
40199;BMP280;25906;43.536;26.068;2023-08-06T11:44:50;97615.03;;;25.31
40199;BMP280;25906;43.536;26.068;2023-08-06T11:47:37;97610.13;;;25.12
40199;BMP280;25906;43.536;26.068;2023-08-06T11:50:24;97618.50;;;24.99
40199;BMP280;25906;43.536;26.068;2023-08-06T11:53:11;97623.34;;;25.00
40199;BMP280;25906;43.536;26.068;2023-08-06T11:55:57;97633.03;;;25.11
40199;BMP280;25906;43.536;26.068;2023-08-06T11:58:42;97630.28;;;25.19
40199;BMP280;25906;43.536;26.068;2023-08-06T12:01:28;97645.53;;;25.31
40199;BMP280;25906;43.536;26.068;2023-08-06T12:04:13;97640.69;;;25.30
40199;BMP280;25906;43.536;26.068;2023-08-06T12:07:07;97641.91;;;25.36
40199;BMP280;25906;43.536;26.068;2023-08-06T12:09:53;97648.75;;;25.54
40199;BMP280;25906;43.536;26.068;2023-08-06T12:12:38;97647.06;;;25.66
40199;BMP280;25906;43.536;26.068;2023-08-06T12:15:23;97644.28;;;25.74
40199;BMP280;25906;43.536;26.068;2023-08-06T12:18:09;97633.13;;;25.70
40199;BMP280;25906;43.536;26.068;2023-08-06T12:20:54;97634.34;;;25.52
40199;BMP280;25906;43.536;26.068;2023-08-06T12:23:39;97629.88;;;25.30
40199;BMP280;25906;43.536;26.068;2023-08-06T12:26:25;97618.63;;;25.33
40199;BMP280;25906;43.536;26.068;2023-08-06T12:29:10;97596.34;;;25.42
40199;BMP280;25906;43.536;26.068;2023-08-06T12:31:55;97571.06;;;25.40
40199;BMP280;25906;43.536;26.068;2023-08-06T12:34:41;97558.78;;;25.39
40199;BMP280;25906;43.536;26.068;2023-08-06T12:37:26;97537.84;;;25.56
40199;BMP280;25906;43.536;26.068;2023-08-06T12:40:12;97553.88;;;25.62
40199;BMP280;25906;43.536;26.068;2023-08-06T12:42:57;97556.25;;;25.58
40199;BMP280;25906;43.536;26.068;2023-08-06T12:45:44;97555.84;;;25.78
40199;BMP280;25906;43.536;26.068;2023-08-06T12:48:29;97555.63;;;25.84
40199;BMP280;25906;43.536;26.068;2023-08-06T12:51:14;97548.44;;;25.79
40199;BMP280;25906;43.536;26.068;2023-08-06T12:54:00;97543.19;;;25.81
40199;BMP280;25906;43.536;26.068;2023-08-06T12:56:45;97555.47;;;25.82
40199;BMP280;25906;43.536;26.068;2023-08-06T12:59:31;97568.00;;;24.94
40199;BMP280;25906;43.536;26.068;2023-08-06T13:02:18;97586.78;;;24.27
40199;BMP280;25906;43.536;26.068;2023-08-06T13:05:03;97581.47;;;23.82
40199;BMP280;25906;43.536;26.068;2023-08-06T13:07:50;97584.03;;;23.72
40199;BMP280;25906;43.536;26.068;2023-08-06T13:10:36;97583.59;;;24.06
40199;BMP280;25906;43.536;26.068;2023-08-06T13:13:21;97588.03;;;24.34
40199;BMP280;25906;43.536;26.068;2023-08-06T13:16:07;97593.09;;;24.62
40199;BMP280;25906;43.536;26.068;2023-08-06T13:18:52;97603.25;;;24.54
40199;BMP280;25906;43.536;26.068;2023-08-06T13:24:25;97592.00;;;25.22
40199;BMP280;25906;43.536;26.068;2023-08-06T13:27:12;97596.06;;;25.31
40199;BMP280;25906;43.536;26.068;2023-08-06T13:29:57;97600.59;;;25.53
40199;BMP280;25906;43.536;26.068;2023-08-06T13:32:43;97593.28;;;25.97
40199;BMP280;25906;43.536;26.068;2023-08-06T13:35:28;97591.97;;;25.64
40199;BMP280;25906;43.536;26.068;2023-08-06T13:38:13;97596.75;;;25.56
40199;BMP280;25906;43.536;26.068;2023-08-06T13:40:59;97595.38;;;25.30
40199;BMP280;25906;43.536;26.068;2023-08-06T13:43:44;97582.75;;;25.25
40199;BMP280;25906;43.536;26.068;2023-08-06T13:46:29;97590.00;;;25.23
40199;BMP280;25906;43.536;26.068;2023-08-06T13:49:15;97581.88;;;25.23
40199;BMP280;25906;43.536;26.068;2023-08-06T13:52:00;97586.38;;;25.03
40199;BMP280;25906;43.536;26.068;2023-08-06T13:54:45;97574.03;;;25.09
40199;BMP280;25906;43.536;26.068;2023-08-06T13:57:31;97576.25;;;25.45
40199;BMP280;25906;43.536;26.068;2023-08-06T14:00:16;97564.72;;;25.62
40199;BMP280;25906;43.536;26.068;2023-08-06T14:03:01;97558.19;;;25.82
40199;BMP280;25906;43.536;26.068;2023-08-06T14:05:46;97579.38;;;25.59
40199;BMP280;25906;43.536;26.068;2023-08-06T14:08:33;97571.25;;;25.59
40199;BMP280;25906;43.536;26.068;2023-08-06T14:11:18;97582.66;;;25.92
40199;BMP280;25906;43.536;26.068;2023-08-06T14:14:03;97571.31;;;26.03
40199;BMP280;25906;43.536;26.068;2023-08-06T14:16:49;97575.25;;;25.92
40199;BMP280;25906;43.536;26.068;2023-08-06T14:19:34;97583.59;;;26.04
40199;BMP280;25906;43.536;26.068;2023-08-06T14:22:19;97576.66;;;26.10
40199;BMP280;25906;43.536;26.068;2023-08-06T14:25:05;97575.75;;;26.25
40199;BMP280;25906;43.536;26.068;2023-08-06T14:27:51;97579.53;;;26.12
40199;BMP280;25906;43.536;26.068;2023-08-06T14:30:36;97565.63;;;26.25
40199;BMP280;25906;43.536;26.068;2023-08-06T14:33:22;97579.63;;;26.48
40199;BMP280;25906;43.536;26.068;2023-08-06T14:36:07;97581.72;;;26.50
40199;BMP280;25906;43.536;26.068;2023-08-06T14:38:52;97585.53;;;26.37
40199;BMP280;25906;43.536;26.068;2023-08-06T14:41:38;97585.88;;;26.24
40199;BMP280;25906;43.536;26.068;2023-08-06T14:44:23;97599.56;;;26.17
40199;BMP280;25906;43.536;26.068;2023-08-06T14:47:08;97595.19;;;25.87
40199;BMP280;25906;43.536;26.068;2023-08-06T14:49:53;97599.81;;;25.77
40199;BMP280;25906;43.536;26.068;2023-08-06T14:52:39;97603.22;;;25.60
40199;BMP280;25906;43.536;26.068;2023-08-06T14:55:24;97600.75;;;25.89
40199;BMP280;25906;43.536;26.068;2023-08-06T14:58:10;97603.88;;;25.86
40199;BMP280;25906;43.536;26.068;2023-08-06T15:00:55;97595.59;;;25.83
40199;BMP280;25906;43.536;26.068;2023-08-06T15:03:40;97602.66;;;26.13
40199;BMP280;25906;43.536;26.068;2023-08-06T15:06:26;97600.66;;;26.14
40199;BMP280;25906;43.536;26.068;2023-08-06T15:09:11;97595.94;;;26.14
40199;BMP280;25906;43.536;26.068;2023-08-06T15:11:56;97601.22;;;26.12
40199;BMP280;25906;43.536;26.068;2023-08-06T15:14:42;97598.34;;;26.10
40199;BMP280;25906;43.536;26.068;2023-08-06T15:17:27;97596.94;;;26.09
40199;BMP280;25906;43.536;26.068;2023-08-06T15:20:14;97594.69;;;26.15
40199;BMP280;25906;43.536;26.068;2023-08-06T15:22:59;97610.31;;;26.51
40199;BMP280;25906;43.536;26.068;2023-08-06T15:25:44;97599.56;;;26.43
40199;BMP280;25906;43.536;26.068;2023-08-06T15:28:30;97607.09;;;26.35
40199;BMP280;25906;43.536;26.068;2023-08-06T15:31:15;97602.22;;;26.61
40199;BMP280;25906;43.536;26.068;2023-08-06T15:34:04;97598.78;;;26.33
40199;BMP280;25906;43.536;26.068;2023-08-06T15:36:50;97605.53;;;26.42
40199;BMP280;25906;43.536;26.068;2023-08-06T15:39:35;97605.22;;;26.55
40199;BMP280;25906;43.536;26.068;2023-08-06T15:42:20;97603.63;;;26.52
40199;BMP280;25906;43.536;26.068;2023-08-06T15:45:06;97607.50;;;26.59
40199;BMP280;25906;43.536;26.068;2023-08-06T15:47:51;97610.59;;;26.45
40199;BMP280;25906;43.536;26.068;2023-08-06T15:50:37;97615.06;;;26.60
40199;BMP280;25906;43.536;26.068;2023-08-06T15:53:23;97612.41;;;26.70